Time;durP1;ratioP1;P1;durP2;ratioP2;P2;SDS_P1;SDS_P2;PMS_P1;PMS_P2;Temp;Humidity;BMP_temperature;BMP_pressure;BME280_temperature;BME280_humidity;BME280_pressure;Samples;Min_cycle;Max_cycle;Signal;HPM_P1;HPM_P2
2023/12/19 00:00:55;;;;;;;4.43;4.00;;;;;;;;;;10026642;28;20049;-70
2023/12/19 00:05:47;;;;;;;4.78;3.80;;;;;;;;;;10026957;28;20074;-69
2023/12/19 00:10:39;;;;;;;4.47;4.07;;;;;;;;;;10026620;28;20061;-70
2023/12/19 00:15:31;;;;;;;3.03;2.72;;;;;;;;;;10026802;28;20046;-70
2023/12/19 00:20:25;;;;;;;5.63;3.70;;;;;;;;;;10025134;28;20083;-70
2023/12/19 00:25:18;;;;;;;5.28;3.22;;;;;;;;;;10026841;28;20073;-69
2023/12/19 00:30:10;;;;;;;4.78;3.58;;;;;;;;;;10024970;28;20123;-70
2023/12/19 00:35:03;;;;;;;3.20;2.88;;;;;;;;;;10026139;28;20048;-70
2023/12/19 00:39:55;;;;;;;6.57;4.60;;;;;;;;;;10025322;28;20144;-70
2023/12/19 00:44:47;;;;;;;5.10;3.78;;;;;;;;;;10025389;28;20057;-70
2023/12/19 00:49:39;;;;;;;6.28;3.75;;;;;;;;;;10025199;28;20083;-70
2023/12/19 00:54:30;;;;;;;5.25;3.80;;;;;;;;;;10025427;28;20042;-70
2023/12/19 00:59:23;;;;;;;7.18;3.70;;;;;;;;;;10024403;28;20069;-69
2023/12/19 01:04:16;;;;;;;7.30;4.35;;;;;;;;;;10025022;28;20041;-70
2023/12/19 01:09:09;;;;;;;3.47;3.15;;;;;;;;;;10024355;28;20084;-69
2023/12/19 01:14:01;;;;;;;4.13;3.30;;;;;;;;;;10024480;28;20112;-70
2023/12/19 01:18:53;;;;;;;3.65;2.75;;;;;;;;;;10022326;28;20530;-70
2023/12/19 01:23:46;;;;;;;4.35;2.70;;;;;;;;;;10024591;28;20096;-70
2023/12/19 01:28:39;;;;;;;6.22;3.63;;;;;;;;;;9988996;28;20054;-69
2023/12/19 01:33:30;;;;;;;3.03;2.70;;;;;;;;;;9982764;28;20381;-70
2023/12/19 01:38:23;;;;;;;3.35;2.50;;;;;;;;;;10023716;28;20136;-70
2023/12/19 01:43:20;;;;;;;3.67;3.25;;;;;;;;;;10024453;28;20489;-70
2023/12/19 01:48:16;;;;;;;4.30;3.30;;;;;;;;;;10023891;28;20042;-70
2023/12/19 01:53:09;;;;;;;3.58;3.20;;;;;;;;;;10023654;28;20513;-70
2023/12/19 01:58:01;;;;;;;2.63;2.42;;;;;;;;;;10025511;28;20042;-70
2023/12/19 02:02:53;;;;;;;3.35;2.60;;;;;;;;;;10013322;28;20077;-70
2023/12/19 02:07:46;;;;;;;3.88;2.40;;;;;;;;;;9994628;28;20049;-70
2023/12/19 02:12:38;;;;;;;6.55;2.97;;;;;;;;;;9997840;28;20042;-70
2023/12/19 02:17:31;;;;;;;2.70;2.28;;;;;;;;;;10008610;28;20359;-70
2023/12/19 02:22:22;;;;;;;4.45;2.25;;;;;;;;;;9999285;28;20046;-70
2023/12/19 02:27:18;;;;;;;2.92;2.63;;;;;;;;;;9994630;28;20122;-70
2023/12/19 02:32:10;;;;;;;5.97;2.47;;;;;;;;;;9995449;28;20525;-70
2023/12/19 02:37:02;;;;;;;3.80;2.67;;;;;;;;;;10001585;28;20108;-70
2023/12/19 02:41:54;;;;;;;4.53;2.72;;;;;;;;;;9993303;28;20055;-70
2023/12/19 02:46:46;;;;;;;2.45;2.20;;;;;;;;;;9995285;28;20035;-70
2023/12/19 02:51:37;;;;;;;3.65;2.60;;;;;;;;;;9992509;28;20046;-70
2023/12/19 02:56:31;;;;;;;2.28;2.17;;;;;;;;;;9997283;28;20045;-70
2023/12/19 03:01:23;;;;;;;3.47;2.53;;;;;;;;;;9991683;28;20050;-68
2023/12/19 03:06:16;;;;;;;2.05;1.95;;;;;;;;;;10004023;28;20780;-68
2023/12/19 03:11:08;;;;;;;2.28;2.00;;;;;;;;;;9991078;28;20428;-68
2023/12/19 03:15:59;;;;;;;4.00;2.15;;;;;;;;;;9993128;28;20368;-71
2023/12/19 03:20:52;;;;;;;2.78;2.58;;;;;;;;;;9990958;28;20092;-68
2023/12/19 03:25:44;;;;;;;3.20;2.50;;;;;;;;;;9995376;28;20042;-68
2023/12/19 03:30:36;;;;;;;3.60;2.17;;;;;;;;;;9992749;28;20053;-70
2023/12/19 03:35:28;;;;;;;2.13;1.98;;;;;;;;;;9996299;28;20442;-69
2023/12/19 03:40:20;;;;;;;2.13;2.03;;;;;;;;;;9990021;28;20088;-68
2023/12/19 03:45:12;;;;;;;2.72;2.50;;;;;;;;;;9997156;28;20082;-71
2023/12/19 03:50:05;;;;;;;2.22;2.00;;;;;;;;;;9992316;28;20466;-71
2023/12/19 03:54:57;;;;;;;4.63;2.60;;;;;;;;;;9992156;28;20129;-71
2023/12/19 03:59:49;;;;;;;3.00;2.30;;;;;;;;;;9990266;28;20084;-69
2023/12/19 04:04:41;;;;;;;2.28;2.08;;;;;;;;;;10005193;28;20118;-70
2023/12/19 04:09:33;;;;;;;2.40;2.17;;;;;;;;;;9989292;28;20046;-68
2023/12/19 04:14:25;;;;;;;2.05;1.90;;;;;;;;;;9993637;28;20042;-70
2023/12/19 04:19:17;;;;;;;3.25;2.70;;;;;;;;;;9988984;28;20089;-70
2023/12/19 04:24:10;;;;;;;2.30;2.10;;;;;;;;;;9998142;28;20038;-71
2023/12/19 04:29:02;;;;;;;2.05;1.88;;;;;;;;;;9995738;28;20096;-70
2023/12/19 04:33:53;;;;;;;2.05;1.95;;;;;;;;;;10001035;28;20042;-70
2023/12/19 04:38:50;;;;;;;1.70;1.60;;;;;;;;;;9989245;28;20056;-71
2023/12/19 04:43:41;;;;;;;2.83;1.80;;;;;;;;;;9991247;28;20046;-70
2023/12/19 04:48:34;;;;;;;1.63;1.52;;;;;;;;;;9992710;28;20149;-70
2023/12/19 04:53:27;;;;;;;1.83;1.73;;;;;;;;;;9990328;28;20409;-70
2023/12/19 04:58:19;;;;;;;2.38;1.92;;;;;;;;;;9993113;28;20073;-70
2023/12/19 05:03:11;;;;;;;2.10;1.90;;;;;;;;;;9992873;28;20130;-70
2023/12/19 05:08:03;;;;;;;2.13;2.00;;;;;;;;;;9999395;28;20042;-71
2023/12/19 05:12:55;;;;;;;2.45;2.25;;;;;;;;;;9988395;28;20038;-70
2023/12/19 05:17:47;;;;;;;50.65;39.58;;;;;;;;;;9998380;28;20038;-70
2023/12/19 05:22:39;;;;;;;5.25;4.85;;;;;;;;;;9997028;28;20058;-70
2023/12/19 05:27:31;;;;;;;4.05;3.70;;;;;;;;;;9995831;28;20133;-70
2023/12/19 05:32:23;;;;;;;6.80;4.85;;;;;;;;;;9991971;28;20097;-70
2023/12/19 05:37:16;;;;;;;41.67;28.95;;;;;;;;;;10003490;28;20046;-70
2023/12/19 05:42:09;;;;;;;16.98;15.13;;;;;;;;;;9996941;28;20524;-70
2023/12/19 05:47:00;;;;;;;7.72;6.85;;;;;;;;;;10002420;28;20039;-70
2023/12/19 05:51:52;;;;;;;5.53;4.03;;;;;;;;;;9995901;28;20054;-71
2023/12/19 05:56:44;;;;;;;2.47;2.28;;;;;;;;;;10012191;28;20034;-70
2023/12/19 06:01:42;;;;;;;6.55;5.82;;;;;;;;;;9994354;28;20598;-70
2023/12/19 06:06:40;;;;;;;2.97;2.73;;;;;;;;;;9999093;28;20108;-70
2023/12/19 06:11:32;;;;;;;4.20;3.80;;;;;;;;;;9994561;28;20046;-70
2023/12/19 06:16:23;;;;;;;6.70;6.13;;;;;;;;;;9997781;28;20109;-70
2023/12/19 06:21:16;;;;;;;4.28;3.88;;;;;;;;;;10015361;28;20041;-71
2023/12/19 06:26:08;;;;;;;5.43;4.30;;;;;;;;;;10025760;28;20088;-70
2023/12/19 06:31:00;;;;;;;16.30;11.70;;;;;;;;;;10024607;28;20104;-70
2023/12/19 06:35:52;;;;;;;42.10;30.40;;;;;;;;;;10027443;28;20084;-70
2023/12/19 06:40:44;;;;;;;22.05;16.95;;;;;;;;;;10026882;28;20049;-70
2023/12/19 06:45:37;;;;;;;8.75;6.63;;;;;;;;;;10027156;28;20481;-70
2023/12/19 06:50:29;;;;;;;6.93;5.13;;;;;;;;;;10028180;28;20437;-70
2023/12/19 06:55:21;;;;;;;8.18;6.18;;;;;;;;;;10029064;28;20042;-70
2023/12/19 07:00:13;;;;;;;5.65;4.13;;;;;;;;;;10029095;28;20073;-72
2023/12/19 07:05:05;;;;;;;58.58;18.00;;;;;;;;;;10028208;28;20038;-71
2023/12/19 07:09:57;;;;;;;9.25;8.35;;;;;;;;;;10024034;28;20058;-73
2023/12/19 07:14:49;;;;;;;8.95;7.60;;;;;;;;;;10025671;28;20531;-72
2023/12/19 07:19:41;;;;;;;41.35;27.92;;;;;;;;;;10027870;28;20050;-72
2023/12/19 07:24:33;;;;;;;3.67;2.75;;;;;;;;;;10008497;28;20397;-73
2023/12/19 07:29:25;;;;;;;15.63;13.38;;;;;;;;;;9999582;28;20097;-72
2023/12/19 07:34:17;;;;;;;2.13;1.80;;;;;;;;;;9989545;28;20047;-73
2023/12/19 07:39:10;;;;;;;16.25;11.35;;;;;;;;;;9998130;28;20038;-73
2023/12/19 07:44:02;;;;;;;7.85;5.00;;;;;;;;;;9996396;28;20050;-73
2023/12/19 07:48:54;;;;;;;16.42;7.82;;;;;;;;;;9993646;28;20053;-72
2023/12/19 07:53:46;;;;;;;5.07;3.38;;;;;;;;;;9996810;28;20054;-72
2023/12/19 07:58:38;;;;;;;2.30;1.65;;;;;;;;;;9987756;28;20137;-72
2023/12/19 08:03:31;;;;;;;2.42;2.10;;;;;;;;;;9986330;28;20054;-72
2023/12/19 08:08:23;;;;;;;3.80;2.95;;;;;;;;;;9987495;28;20052;-72
2023/12/19 08:13:17;;;;;;;6.30;4.63;;;;;;;;;;9995346;28;20053;-72
2023/12/19 08:18:09;;;;;;;10.13;6.57;;;;;;;;;;9985989;28;20031;-72
2023/12/19 08:23:02;;;;;;;5.80;4.88;;;;;;;;;;9987440;28;20069;-72
2023/12/19 08:27:54;;;;;;;8.35;5.32;;;;;;;;;;9988198;28;20450;-72
2023/12/19 08:32:46;;;;;;;6.88;4.63;;;;;;;;;;9995087;28;20469;-72
2023/12/19 08:37:38;;;;;;;4.75;4.05;;;;;;;;;;9986054;28;20162;-72
2023/12/19 08:42:30;;;;;;;4.70;4.07;;;;;;;;;;9986307;28;20072;-72
2023/12/19 08:47:22;;;;;;;4.57;3.95;;;;;;;;;;9984247;28;20468;-72
2023/12/19 08:52:14;;;;;;;6.30;5.70;;;;;;;;;;9983159;28;20046;-72
2023/12/19 08:57:06;;;;;;;6.80;6.07;;;;;;;;;;9984631;28;20448;-71
2023/12/19 09:01:58;;;;;;;11.85;9.65;;;;;;;;;;9985819;28;20154;-72
2023/12/19 09:06:50;;;;;;;20.67;15.50;;;;;;;;;;9987289;28;20137;-72
2023/12/19 09:11:42;;;;;;;15.07;13.23;;;;;;;;;;9981193;28;20050;-72
2023/12/19 09:16:34;;;;;;;11.55;9.77;;;;;;;;;;9989965;28;20471;-72
2023/12/19 09:21:26;;;;;;;12.43;9.55;;;;;;;;;;9985299;28;20481;-72
2023/12/19 09:26:18;;;;;;;9.55;8.00;;;;;;;;;;9986191;28;20054;-72
2023/12/19 09:31:11;;;;;;;11.65;6.18;;;;;;;;;;9986154;28;20042;-72
2023/12/19 09:36:04;;;;;;;22.40;7.55;;;;;;;;;;9985178;28;20219;-72
2023/12/19 09:40:56;;;;;;;16.67;4.88;;;;;;;;;;9985543;28;20055;-72
2023/12/19 09:45:50;;;;;;;15.13;6.63;;;;;;;;;;9986214;28;20587;-72
2023/12/19 09:50:45;;;;;;;21.45;7.10;;;;;;;;;;9985427;28;20871;-72
2023/12/19 09:55:43;;;;;;;16.40;4.40;;;;;;;;;;9987127;28;20116;-72
2023/12/19 10:00:39;;;;;;;7.97;4.13;;;;;;;;;;9991170;28;20133;-72
2023/12/19 10:05:31;;;;;;;9.93;4.85;;;;;;;;;;9986159;28;20389;-72
2023/12/19 10:10:48;;;;;;;11.57;7.72;;;;;;;;;;9993061;28;20145;-72
2023/12/19 10:15:40;;;;;;;6.80;5.68;;;;;;;;;;9985940;28;20038;-72
2023/12/19 10:20:32;;;;;;;6.38;4.93;;;;;;;;;;9989763;28;20035;-72
2023/12/19 10:25:24;;;;;;;5.90;4.20;;;;;;;;;;9992317;28;20073;-72
2023/12/19 10:30:26;;;;;;;8.10;4.80;;;;;;;;;;9992136;28;20440;-72
2023/12/19 10:35:18;;;;;;;4.60;3.45;;;;;;;;;;9992562;28;20046;-72
2023/12/19 10:40:12;;;;;;;3.17;2.92;;;;;;;;;;9994609;28;20460;-72
2023/12/19 10:45:05;;;;;;;5.50;4.90;;;;;;;;;;9992946;28;20043;-72
2023/12/19 10:49:57;;;;;;;6.55;4.80;;;;;;;;;;9992332;28;20097;-72
2023/12/19 10:54:53;;;;;;;5.88;5.10;;;;;;;;;;10005738;28;20165;-72
2023/12/19 10:59:54;;;;;;;5.55;4.78;;;;;;;;;;9989598;28;20073;-72
2023/12/19 11:04:51;;;;;;;6.95;5.63;;;;;;;;;;10005266;28;20038;-72
2023/12/19 11:09:47;;;;;;;8.52;5.63;;;;;;;;;;9991426;28;20457;-72
2023/12/19 11:14:40;;;;;;;7.53;6.22;;;;;;;;;;10007089;28;20417;-71
2023/12/19 11:19:39;;;;;;;9.90;7.72;;;;;;;;;;9989746;28;20403;-72
2023/12/19 11:24:36;;;;;;;10.18;7.30;;;;;;;;;;9987188;28;20097;-72
2023/12/19 11:29:46;;;;;;;11.18;6.90;;;;;;;;;;9988261;28;20038;-73
2023/12/19 11:34:38;;;;;;;9.45;6.68;;;;;;;;;;9989549;28;20045;-73
2023/12/19 11:39:31;;;;;;;12.32;6.47;;;;;;;;;;9990474;28;20100;-73
2023/12/19 11:44:37;;;;;;;7.70;6.40;;;;;;;;;;9992582;28;20054;-73
2023/12/19 11:49:36;;;;;;;11.35;6.35;;;;;;;;;;9990804;28;20049;-73
2023/12/19 11:54:28;;;;;;;7.90;7.05;;;;;;;;;;9989255;28;20042;-73
2023/12/19 11:59:20;;;;;;;7.38;5.20;;;;;;;;;;9989091;28;20042;-73
2023/12/19 12:04:13;;;;;;;13.95;7.57;;;;;;;;;;9990068;28;20477;-73
2023/12/19 12:09:05;;;;;;;11.57;8.32;;;;;;;;;;9992386;28;20039;-73
2023/12/19 12:14:02;;;;;;;8.27;5.40;;;;;;;;;;9987948;28;20042;-73
2023/12/19 12:19:18;;;;;;;6.80;4.65;;;;;;;;;;9989047;28;20064;-73
2023/12/19 12:24:23;;;;;;;10.23;6.18;;;;;;;;;;9988612;28;20050;-73
2023/12/19 12:29:35;;;;;;;9.70;5.55;;;;;;;;;;9987001;28;20038;-73
2023/12/19 12:34:31;;;;;;;7.70;5.65;;;;;;;;;;9986915;28;20097;-72
2023/12/19 12:39:23;;;;;;;9.32;6.05;;;;;;;;;;10000387;28;20046;-73
2023/12/19 12:44:15;;;;;;;6.82;5.57;;;;;;;;;;9991095;28;20193;-72
2023/12/19 12:49:07;;;;;;;9.98;6.30;;;;;;;;;;9989620;28;20132;-72
2023/12/19 12:54:00;;;;;;;11.82;6.22;;;;;;;;;;10002367;28;20054;-73
2023/12/19 12:58:59;;;;;;;7.82;5.60;;;;;;;;;;9985625;28;20048;-73
2023/12/19 13:03:52;;;;;;;9.35;6.65;;;;;;;;;;9986539;28;20068;-73
2023/12/19 13:08:44;;;;;;;7.05;6.03;;;;;;;;;;9990229;28;20407;-73
2023/12/19 13:13:36;;;;;;;9.00;6.38;;;;;;;;;;9985738;28;20101;-72
2023/12/19 13:18:28;;;;;;;8.75;6.25;;;;;;;;;;9995201;28;20088;-72
2023/12/19 13:23:20;;;;;;;9.30;5.93;;;;;;;;;;9985957;28;20103;-73
2023/12/19 13:28:14;;;;;;;10.35;5.57;;;;;;;;;;9986422;28;20047;-73
2023/12/19 13:33:10;;;;;;;10.40;7.00;;;;;;;;;;9990701;28;20350;-72
2023/12/19 13:38:02;;;;;;;9.57;7.05;;;;;;;;;;9986609;28;20085;-72
2023/12/19 13:42:58;;;;;;;8.90;6.90;;;;;;;;;;9987780;28;20062;-72
2023/12/19 13:47:51;;;;;;;14.95;8.05;;;;;;;;;;9981986;28;20333;-72
2023/12/19 13:52:43;;;;;;;9.73;8.05;;;;;;;;;;9986710;28;20130;-72
2023/12/19 13:57:35;;;;;;;9.57;7.80;;;;;;;;;;9994363;28;20054;-71
2023/12/19 14:02:28;;;;;;;9.68;7.13;;;;;;;;;;9992357;28;20049;-72
2023/12/19 14:07:22;;;;;;;13.02;7.97;;;;;;;;;;9992571;28;20450;-72
2023/12/19 14:12:14;;;;;;;12.52;8.35;;;;;;;;;;10000845;28;20133;-72
2023/12/19 14:17:06;;;;;;;11.25;7.80;;;;;;;;;;9992513;28;20065;-72
2023/12/19 14:22:00;;;;;;;13.07;8.48;;;;;;;;;;9992874;28;20050;-72
2023/12/19 14:26:52;;;;;;;12.20;8.23;;;;;;;;;;9995046;28;20042;-72
2023/12/19 14:31:45;;;;;;;11.73;9.65;;;;;;;;;;10003643;28;20378;-72
2023/12/19 14:36:37;;;;;;;19.67;12.57;;;;;;;;;;9989057;28;20057;-73
2023/12/19 14:41:30;;;;;;;16.95;12.75;;;;;;;;;;9993367;28;20050;-72
2023/12/19 14:46:23;;;;;;;12.68;11.48;;;;;;;;;;9992023;28;20043;-72
2023/12/19 14:51:15;;;;;;;20.38;18.38;;;;;;;;;;9990080;28;20039;-72
2023/12/19 14:56:10;;;;;;;22.52;16.95;;;;;;;;;;9990233;28;20042;-72
2023/12/19 15:01:02;;;;;;;17.83;13.43;;;;;;;;;;9994734;28;20042;-73
2023/12/19 15:05:54;;;;;;;12.23;8.68;;;;;;;;;;9992545;28;20042;-73
2023/12/19 15:10:46;;;;;;;11.25;9.07;;;;;;;;;;9996726;28;20050;-73
2023/12/19 15:15:38;;;;;;;14.23;9.00;;;;;;;;;;9986383;28;20563;-74
2023/12/19 15:20:30;;;;;;;19.75;15.77;;;;;;;;;;10002647;28;21074;-74
2023/12/19 15:25:22;;;;;;;13.02;11.40;;;;;;;;;;9995740;28;20050;-74
2023/12/19 15:30:14;;;;;;;14.27;11.35;;;;;;;;;;9999315;28;20042;-75
2023/12/19 15:35:10;;;;;;;14.00;9.02;;;;;;;;;;9993643;28;20069;-73
2023/12/19 15:40:03;;;;;;;78.40;54.72;;;;;;;;;;10007380;28;20038;-73
2023/12/19 15:44:55;;;;;;;17.60;15.80;;;;;;;;;;9991802;28;20061;-72
2023/12/19 15:49:47;;;;;;;15.18;12.05;;;;;;;;;;10004933;28;20446;-73
2023/12/19 15:54:42;;;;;;;17.13;12.55;;;;;;;;;;9990830;28;20053;-74
2023/12/19 15:59:34;;;;;;;15.65;12.95;;;;;;;;;;9986007;28;20406;-74
2023/12/19 16:04:26;;;;;;;21.77;15.57;;;;;;;;;;9990929;28;20054;-74
2023/12/19 16:09:20;;;;;;;30.85;22.05;;;;;;;;;;9992514;28;20384;-74
2023/12/19 16:14:12;;;;;;;17.80;15.30;;;;;;;;;;9989974;28;20045;-74
2023/12/19 16:19:04;;;;;;;24.52;16.85;;;;;;;;;;9998861;28;20042;-74
2023/12/19 16:23:56;;;;;;;282.90;183.35;;;;;;;;;;10002158;28;20042;-74
2023/12/19 16:28:55;;;;;;;51.30;35.92;;;;;;;;;;9988923;28;20083;-74
2023/12/19 16:33:47;;;;;;;31.77;23.63;;;;;;;;;;10004729;28;20043;-74
2023/12/19 16:38:40;;;;;;;27.33;15.70;;;;;;;;;;10004872;28;20046;-72
2023/12/19 16:43:32;;;;;;;22.20;14.18;;;;;;;;;;9995590;28;20330;-74
2023/12/19 16:48:24;;;;;;;14.35;12.30;;;;;;;;;;9993461;28;20050;-74
2023/12/19 16:53:16;;;;;;;13.18;10.27;;;;;;;;;;10022610;28;20069;-74
2023/12/19 16:58:08;;;;;;;15.00;10.60;;;;;;;;;;10021523;28;20351;-73
2023/12/19 17:03:00;;;;;;;16.25;11.73;;;;;;;;;;10018477;28;20073;-73
2023/12/19 17:07:52;;;;;;;17.80;13.95;;;;;;;;;;10018874;28;20153;-74
2023/12/19 17:12:46;;;;;;;20.10;13.07;;;;;;;;;;10018764;28;20044;-74
2023/12/19 17:17:39;;;;;;;21.52;14.13;;;;;;;;;;10024332;28;20125;-74
2023/12/19 17:22:31;;;;;;;130.63;93.97;;;;;;;;;;10024767;28;20045;-74
2023/12/19 17:27:22;;;;;;;36.63;24.17;;;;;;;;;;10021404;28;20045;-74
2023/12/19 17:32:14;;;;;;;40.90;28.75;;;;;;;;;;10033582;28;20096;-74
2023/12/19 17:37:06;;;;;;;43.42;26.95;;;;;;;;;;10021330;28;20042;-74
2023/12/19 17:41:58;;;;;;;26.23;18.55;;;;;;;;;;10024959;28;20559;-74
2023/12/19 17:46:50;;;;;;;29.70;20.35;;;;;;;;;;10026866;28;20188;-74
2023/12/19 17:51:42;;;;;;;22.33;19.85;;;;;;;;;;10013301;28;20108;-73
2023/12/19 17:56:34;;;;;;;17.70;15.00;;;;;;;;;;10021776;28;20496;-74
2023/12/19 18:01:26;;;;;;;18.20;12.60;;;;;;;;;;10005686;28;20046;-74
2023/12/19 18:06:18;;;;;;;28.90;21.05;;;;;;;;;;10029105;28;20030;-74
2023/12/19 18:11:14;;;;;;;22.30;16.20;;;;;;;;;;10026638;28;20052;-74
2023/12/19 18:16:06;;;;;;;17.55;9.75;;;;;;;;;;10012897;28;20038;-74
2023/12/19 18:20:58;;;;;;;14.85;12.85;;;;;;;;;;10016608;28;20081;-73
2023/12/19 18:25:50;;;;;;;40.58;28.95;;;;;;;;;;10019248;28;20144;-74
2023/12/19 18:30:42;;;;;;;24.80;16.80;;;;;;;;;;10011261;28;20133;-76
2023/12/19 18:35:37;;;;;;;20.50;14.27;;;;;;;;;;10021209;28;20050;-73
2023/12/19 18:40:29;;;;;;;25.63;17.27;;;;;;;;;;10025757;28;20100;-74
2023/12/19 18:45:22;;;;;;;18.70;14.50;;;;;;;;;;10034796;28;20060;-73
2023/12/19 18:50:14;;;;;;;22.60;18.55;;;;;;;;;;10010776;28;20085;-74
2023/12/19 18:55:07;;;;;;;14.68;11.63;;;;;;;;;;10027025;28;20042;-74
2023/12/19 19:00:03;;;;;;;13.25;9.93;;;;;;;;;;10028348;28;20092;-74
2023/12/19 19:04:54;;;;;;;17.55;12.70;;;;;;;;;;10028976;28;20045;-74
2023/12/19 19:09:46;;;;;;;7.13;5.40;;;;;;;;;;10035467;28;20527;-74
2023/12/19 19:14:38;;;;;;;6.07;5.18;;;;;;;;;;10030259;28;20041;-74
2023/12/19 19:19:30;;;;;;;9.43;7.07;;;;;;;;;;10018345;28;20115;-74
2023/12/19 19:24:22;;;;;;;9.85;7.40;;;;;;;;;;10016630;28;20137;-74
2023/12/19 19:29:14;;;;;;;11.05;7.85;;;;;;;;;;10029611;28;20096;-74
2023/12/19 19:34:06;;;;;;;9.85;8.85;;;;;;;;;;10018924;28;20101;-73
2023/12/19 19:38:58;;;;;;;11.77;9.95;;;;;;;;;;10002925;28;20050;-74
2023/12/19 19:43:53;;;;;;;11.05;8.05;;;;;;;;;;10002946;28;20115;-74
2023/12/19 19:48:45;;;;;;;11.75;8.32;;;;;;;;;;10017064;28;20049;-74
2023/12/19 19:53:37;;;;;;;12.70;8.65;;;;;;;;;;10007214;28;20057;-74
2023/12/19 19:58:29;;;;;;;10.05;7.82;;;;;;;;;;10022778;28;20346;-75
2023/12/19 20:03:21;;;;;;;11.70;7.30;;;;;;;;;;10026040;28;20061;-74
2023/12/19 20:08:13;;;;;;;10.63;7.63;;;;;;;;;;10023597;28;20124;-75
2023/12/19 20:13:05;;;;;;;7.47;6.78;;;;;;;;;;10024063;28;20069;-72
2023/12/19 20:17:57;;;;;;;7.90;6.07;;;;;;;;;;10025011;28;20038;-71
2023/12/19 20:22:49;;;;;;;6.53;5.13;;;;;;;;;;10019977;28;20053;-72
2023/12/19 20:27:42;;;;;;;7.00;6.15;;;;;;;;;;10025948;28;20103;-72
2023/12/19 20:32:35;;;;;;;11.07;5.28;;;;;;;;;;10020025;28;20061;-73
2023/12/19 20:37:27;;;;;;;11.18;9.00;;;;;;;;;;10011622;28;20049;-73
2023/12/19 20:42:18;;;;;;;10.15;7.97;;;;;;;;;;10026123;28;20664;-73
2023/12/19 20:47:10;;;;;;;11.93;7.95;;;;;;;;;;10026398;28;20524;-73
2023/12/19 20:52:04;;;;;;;12.27;8.05;;;;;;;;;;10026522;28;20121;-74
2023/12/19 20:56:57;;;;;;;6.57;5.68;;;;;;;;;;10032567;28;20177;-73
2023/12/19 21:01:49;;;;;;;8.05;5.80;;;;;;;;;;10025329;28;20077;-73
2023/12/19 21:06:41;;;;;;;7.45;3.50;;;;;;;;;;10024967;28;20564;-73
2023/12/19 21:11:33;;;;;;;27.48;15.30;;;;;;;;;;10020463;28;20401;-73
2023/12/19 21:16:26;;;;;;;25.23;13.50;;;;;;;;;;10014665;28;20496;-72
2023/12/19 21:21:18;;;;;;;11.18;7.90;;;;;;;;;;10027210;28;20145;-73
2023/12/19 21:26:10;;;;;;;6.82;4.65;;;;;;;;;;10017275;28;20042;-73
2023/12/19 21:31:02;;;;;;;7.25;5.90;;;;;;;;;;10019388;28;20046;-73
2023/12/19 21:35:54;;;;;;;6.00;5.25;;;;;;;;;;10012247;28;20052;-73
2023/12/19 21:40:46;;;;;;;3.53;2.60;;;;;;;;;;10023703;28;20058;-73
2023/12/19 21:45:38;;;;;;;6.07;4.68;;;;;;;;;;10014531;28;20057;-72
2023/12/19 21:50:30;;;;;;;5.80;4.97;;;;;;;;;;10022011;28;20384;-73
2023/12/19 21:55:22;;;;;;;9.07;5.25;;;;;;;;;;10024749;28;20046;-73
2023/12/19 22:00:14;;;;;;;7.93;5.13;;;;;;;;;;10023522;28;20054;-73
2023/12/19 22:05:06;;;;;;;9.45;5.32;;;;;;;;;;10022023;28;20050;-72
2023/12/19 22:09:58;;;;;;;5.32;3.15;;;;;;;;;;10020527;28;20042;-72
2023/12/19 22:14:54;;;;;;;3.60;3.10;;;;;;;;;;10024947;28;20044;-73
2023/12/19 22:19:46;;;;;;;4.05;3.70;;;;;;;;;;10030154;28;20129;-74
2023/12/19 22:24:39;;;;;;;7.00;3.30;;;;;;;;;;10033134;28;20046;-73
2023/12/19 22:29:31;;;;;;;27.95;13.65;;;;;;;;;;10027521;28;20066;-74
2023/12/19 22:34:23;;;;;;;9.48;7.07;;;;;;;;;;10028073;28;20141;-73
2023/12/19 22:39:15;;;;;;;4.22;3.38;;;;;;;;;;10026876;28;20041;-73
2023/12/19 22:44:07;;;;;;;6.30;3.38;;;;;;;;;;10043310;28;20469;-74
2023/12/19 22:48:59;;;;;;;7.25;3.90;;;;;;;;;;10030667;28;20124;-74
2023/12/19 22:53:51;;;;;;;5.70;4.10;;;;;;;;;;10042871;28;20049;-74
2023/12/19 22:58:43;;;;;;;4.90;3.42;;;;;;;;;;10030707;28;20062;-73
2023/12/19 23:03:35;;;;;;;4.22;3.83;;;;;;;;;;10030320;28;20422;-74
2023/12/19 23:08:27;;;;;;;4.97;3.92;;;;;;;;;;10030499;28;20052;-74
2023/12/19 23:13:19;;;;;;;3.47;3.17;;;;;;;;;;10029954;28;20050;-73
2023/12/19 23:18:11;;;;;;;3.60;3.22;;;;;;;;;;10022385;28;20125;-73
2023/12/19 23:23:03;;;;;;;4.43;3.03;;;;;;;;;;10032969;28;20057;-73
2023/12/19 23:27:57;;;;;;;3.00;2.60;;;;;;;;;;10021364;28;20133;-74
2023/12/19 23:32:49;;;;;;;3.45;3.08;;;;;;;;;;10030049;28;20050;-74
2023/12/19 23:37:41;;;;;;;4.70;3.25;;;;;;;;;;10028985;28;20131;-73
2023/12/19 23:42:34;;;;;;;3.53;2.85;;;;;;;;;;10028022;28;20060;-74
2023/12/19 23:47:26;;;;;;;8.52;3.78;;;;;;;;;;10028840;28;20051;-73
2023/12/19 23:52:17;;;;;;;6.05;3.70;;;;;;;;;;10029123;28;20042;-74
2023/12/19 23:57:09;;;;;;;3.05;2.75;;;;;;;;;;10028502;28;20076;-74
